Time;durP1;ratioP1;P1;durP2;ratioP2;P2;SDS_P1;SDS_P2;PMS_P1;PMS_P2;Temp;Humidity;BMP_temperature;BMP_pressure;BME280_temperature;BME280_humidity;BME280_pressure;Samples;Min_cycle;Max_cycle;Signal;HPM_P1;HPM_P2
2023/03/31 00:01:03;;;;;;;0.33;0.30;;;;;;;9.82;57.34;95559.28;5132342;27;20470;-56
2023/03/31 00:03:32;;;;;;;0.40;0.30;;;;;;;9.95;57.41;95552.72;5132688;27;20521;-55
2023/03/31 00:06:02;;;;;;;0.30;0.20;;;;;;;9.89;57.00;95543.97;5132866;27;20441;-55
2023/03/31 00:08:35;;;;;;;0.30;0.20;;;;;;;9.95;57.13;95552.72;5132804;27;20795;-56
2023/03/31 00:11:06;;;;;;;0.30;0.20;;;;;;;10.12;56.88;95548.03;5132412;27;20480;-55
2023/03/31 00:13:35;;;;;;;0.30;0.20;;;;;;;9.68;57.83;95547.59;5131835;27;20541;-56
2023/03/31 00:16:06;;;;;;;0.30;0.20;;;;;;;9.37;58.78;95543.19;5132135;27;20442;-56
2023/03/31 00:18:35;;;;;;;0.40;0.30;;;;;;;9.18;59.36;95544.66;5132135;27;20438;-56
2023/03/31 00:21:13;;;;;;;0.30;0.20;;;;;;;9.23;59.54;95526.19;5132050;28;21158;-55
2023/03/31 00:23:43;;;;;;;0.40;0.30;;;;;;;9.71;57.99;95536.50;5131815;27;20506;-55
2023/03/31 00:26:11;;;;;;;0.30;0.20;;;;;;;9.84;57.38;95535.22;5132180;28;20468;-56
2023/03/31 00:28:39;;;;;;;0.40;0.20;;;;;;;9.75;57.28;95540.22;5132187;28;20938;-55
2023/03/31 00:31:08;;;;;;;0.40;0.30;;;;;;;9.25;59.05;95539.94;5132368;28;20473;-55
2023/03/31 00:33:36;;;;;;;0.30;0.20;;;;;;;9.49;59.12;95549.06;5105360;28;20931;-56
2023/03/31 00:36:05;;;;;;;0.40;0.30;;;;;;;9.59;58.15;95547.28;5132246;28;20431;-56
2023/03/31 00:38:34;;;;;;;0.40;0.30;;;;;;;9.40;58.51;95545.31;5131998;27;20498;-55
2023/03/31 00:41:05;;;;;;;0.30;0.20;;;;;;;9.15;59.37;95543.31;5130540;28;20958;-56
2023/03/31 00:43:35;;;;;;;0.37;0.23;;;;;;;8.98;60.04;95532.06;5132282;28;20990;-55
2023/03/31 00:46:14;;;;;;;0.40;0.30;;;;;;;9.06;59.82;95533.47;5131937;28;20449;-55
2023/03/31 00:48:47;;;;;;;0.30;0.20;;;;;;;9.38;59.14;95532.38;5132278;28;20433;-56
2023/03/31 00:51:16;;;;;;;0.30;0.20;;;;;;;9.48;58.49;95516.53;5131942;28;20473;-55
2023/03/31 00:53:50;;;;;;;0.30;0.20;;;;;;;9.65;58.46;95536.72;5131133;27;20448;-55
2023/03/31 00:56:21;;;;;;;0.30;0.20;;;;;;;9.52;58.40;95528.19;5131659;28;20430;-56
2023/03/31 00:58:49;;;;;;;0.30;0.20;;;;;;;9.17;59.28;95530.63;5131885;28;20491;-55
2023/03/31 01:01:23;;;;;;;0.30;0.30;;;;;;;8.92;60.11;95530.47;5132473;28;20518;-55
2023/03/31 01:03:52;;;;;;;0.30;0.20;;;;;;;9.02;59.67;95508.59;5131838;28;20465;-56
2023/03/31 01:06:22;;;;;;;0.40;0.30;;;;;;;9.15;59.53;95513.44;5131986;28;20528;-56
2023/03/31 01:08:52;;;;;;;0.30;0.20;;;;;;;9.02;58.80;95463.63;5131336;28;20474;-56
2023/03/31 01:11:26;;;;;;;0.40;0.20;;;;;;;9.38;58.14;95507.75;5131946;28;20901;-55
2023/03/31 01:13:56;;;;;;;0.40;0.30;;;;;;;9.48;57.89;95503.31;5131475;27;20525;-55
2023/03/31 01:16:25;;;;;;;0.33;0.23;;;;;;;9.47;58.01;95508.84;5131928;28;20444;-55
2023/03/31 01:18:56;;;;;;;1.07;1.07;;;;;;;9.40;58.61;95509.09;5131252;28;20454;-56
2023/03/31 01:22:01;;;;;;;0.37;0.27;;;;;;;9.28;59.15;95503.22;5131396;28;20437;-55
2023/03/31 01:25:05;;;;;;;0.40;0.30;;;;;;;9.27;58.70;95498.16;5114968;28;20468;-55
2023/03/31 01:27:58;;;;;;;0.30;0.20;;;;;;;9.40;58.51;95500.34;5115552;27;20529;-56
2023/03/31 01:30:55;;;;;;;0.30;0.20;;;;;;;9.47;58.59;95495.63;5135640;27;20823;-56
2023/03/31 01:33:51;;;;;;;0.30;0.20;;;;;;;8.81;59.50;95495.22;5135101;27;20479;-56
2023/03/31 01:37:05;;;;;;;0.50;0.30;;;;;;;8.71;60.44;95492.50;5135354;27;20884;-56
2023/03/31 01:40:07;;;;;;;0.40;0.30;;;;;;;8.22;61.65;95488.38;5134862;27;20529;-55
2023/03/31 01:42:39;;;;;;;0.50;0.50;;;;;;;8.58;61.58;95486.84;5107336;27;20448;-55
2023/03/31 01:45:20;;;;;;;0.40;0.40;;;;;;;7.39;60.44;95246.16;5134804;27;20434;-55
2023/03/31 01:47:56;;;;;;;0.40;0.30;;;;;;;8.68;60.98;95484.28;5135173;27;20539;-55
2023/03/31 01:50:30;;;;;;;0.40;0.20;;;;;;;8.30;61.15;95450.94;5134952;27;20938;-55
2023/03/31 01:53:05;;;;;;;0.30;0.20;;;;;;;8.16;62.65;95487.50;5127830;27;20515;-55
2023/03/31 01:55:37;;;;;;;0.40;0.30;;;;;;;8.55;61.36;95488.13;5134373;27;20981;-56
2023/03/31 01:58:11;;;;;;;0.40;0.30;;;;;;;8.77;60.93;95491.50;5134541;27;20528;-56
2023/03/31 02:00:45;;;;;;;0.40;0.30;;;;;;;8.62;61.53;95493.22;5134336;27;20425;-56
2023/03/31 02:03:18;;;;;;;0.30;0.20;;;;;;;8.73;60.53;95487.75;5134305;27;20459;-56
2023/03/31 02:05:52;;;;;;;0.30;0.20;;;;;;;8.82;60.26;95480.97;5134121;27;20862;-56
2023/03/31 02:08:24;;;;;;;0.90;0.40;;;;;;;8.92;60.27;95480.25;5134972;27;20460;-56
2023/03/31 02:10:55;;;;;;;0.30;0.20;;;;;;;8.98;60.17;95478.44;5134241;27;20523;-56
2023/03/31 02:13:27;;;;;;;0.30;0.20;;;;;;;8.98;59.50;95460.69;5134336;27;20498;-56
2023/03/31 02:16:01;;;;;;;0.30;0.20;;;;;;;9.10;59.82;95481.66;5134354;27;20532;-56
2023/03/31 02:18:32;;;;;;;0.30;0.30;;;;;;;9.15;59.87;95473.75;5134371;27;20451;-56
2023/03/31 02:21:01;;;;;;;0.37;0.27;;;;;;;8.68;60.77;95479.78;5134108;27;20534;-56
2023/03/31 02:23:31;;;;;;;0.30;0.20;;;;;;;8.85;60.56;95477.78;5134095;27;20768;-56
2023/03/31 02:26:04;;;;;;;0.30;0.20;;;;;;;8.56;60.12;95412.34;5134396;27;20540;-56
2023/03/31 02:28:33;;;;;;;0.30;0.20;;;;;;;9.11;60.12;95468.19;5133997;27;20488;-56
2023/03/31 02:31:13;;;;;;;0.30;0.20;;;;;;;8.96;59.31;95420.50;5134068;27;20528;-56
2023/03/31 02:33:42;;;;;;;0.30;0.20;;;;;;;9.31;59.25;95478.09;5134077;27;20484;-56
2023/03/31 02:36:10;;;;;;;0.30;0.23;;;;;;;8.97;60.30;95477.63;5134127;27;20438;-56
2023/03/31 02:38:45;;;;;;;0.40;0.30;;;;;;;9.11;59.55;95473.47;5132876;27;20439;-56
2023/03/31 02:41:14;;;;;;;0.30;0.20;;;;;;;8.95;59.79;95437.44;5133918;27;20445;-56
2023/03/31 02:43:43;;;;;;;0.30;0.20;;;;;;;9.27;59.71;95477.00;5133539;27;20872;-56
2023/03/31 02:46:11;;;;;;;0.30;0.20;;;;;;;9.33;59.26;95474.13;5132690;27;20972;-56
2023/03/31 02:48:43;;;;;;;0.30;0.27;;;;;;;9.40;59.26;95471.25;5133220;27;20463;-56
2023/03/31 02:51:44;;;;;;;2.73;0.40;;;;;;;9.23;59.79;95473.28;5132208;27;20443;-56
2023/03/31 02:54:55;;;;;;;0.30;0.20;;;;;;;9.44;59.41;95469.66;5133114;27;20442;-56
2023/03/31 02:57:56;;;;;;;0.70;0.70;;;;;;;9.25;59.81;95479.13;5104896;27;20821;-56
2023/03/31 03:00:37;;;;;;;0.40;0.30;;;;;;;9.51;59.62;95478.19;5133430;27;20436;-56
2023/03/31 03:03:19;;;;;;;0.30;0.20;;;;;;;9.48;59.32;95468.91;5133853;27;20472;-56
2023/03/31 03:05:58;;;;;;;0.30;0.20;;;;;;;9.44;59.54;95488.19;5132490;27;20518;-54
2023/03/31 03:08:41;;;;;;;0.40;0.40;;;;;;;9.01;60.93;95483.19;5133857;27;20441;-55
2023/03/31 03:11:20;;;;;;;0.90;0.60;;;;;;;8.84;61.30;95484.16;5132598;27;20980;-55
2023/03/31 03:13:52;;;;;;;0.40;0.30;;;;;;;8.85;61.96;95483.09;5133104;27;20520;-55
2023/03/31 03:16:26;;;;;;;0.40;0.30;;;;;;;8.97;61.79;95461.75;5133594;27;20949;-55
2023/03/31 03:18:58;;;;;;;0.53;0.40;;;;;;;8.84;61.16;95478.88;5132867;27;20448;-55
2023/03/31 03:21:26;;;;;;;0.60;0.60;;;;;;;9.02;61.07;95474.22;5133114;27;20888;-55
2023/03/31 03:23:55;;;;;;;0.40;0.30;;;;;;;9.13;60.02;95415.88;5132239;27;20817;-55
2023/03/31 03:26:26;;;;;;;5.80;0.60;;;;;;;9.75;59.16;95471.41;5133207;27;20820;-56
2023/03/31 03:28:57;;;;;;;0.40;0.40;;;;;;;9.73;59.42;95478.81;5133144;27;20786;-55
2023/03/31 03:31:25;;;;;;;0.30;0.20;;;;;;;9.47;60.94;95462.03;5132923;27;20437;-55
2023/03/31 03:33:54;;;;;;;0.30;0.20;;;;;;;9.74;59.32;95474.31;5132170;27;20481;-56
2023/03/31 03:36:23;;;;;;;6.10;0.40;;;;;;;9.65;59.51;95473.19;5133074;27;20437;-55
2023/03/31 03:38:51;;;;;;;0.50;0.50;;;;;;;9.72;59.83;95463.97;5133050;27;20882;-56
2023/03/31 03:41:19;;;;;;;0.67;0.67;;;;;;;9.77;59.99;95469.28;5132707;27;20525;-55
2023/03/31 03:43:47;;;;;;;0.50;0.47;;;;;;;9.86;59.58;95464.28;5132488;27;20476;-56
2023/03/31 03:46:17;;;;;;;0.40;0.30;;;;;;;9.33;60.77;95423.88;5132710;27;20474;-56
2023/03/31 03:48:46;;;;;;;0.30;0.20;;;;;;;9.26;62.11;95464.84;5132745;27;20521;-56
2023/03/31 03:51:14;;;;;;;0.40;0.40;;;;;;;9.47;61.48;95458.59;5132892;27;20475;-56
2023/03/31 03:53:42;;;;;;;2.30;0.50;;;;;;;9.69;60.80;95450.47;5132711;27;20470;-56
2023/03/31 03:56:11;;;;;;;0.50;0.50;;;;;;;9.71;60.51;95451.00;5132514;27;20470;-56
2023/03/31 03:58:39;;;;;;;0.80;0.70;;;;;;;9.41;61.30;95452.47;5132721;27;20435;-56
2023/03/31 04:01:08;;;;;;;3.13;0.53;;;;;;;9.46;61.55;95451.72;5133150;27;20450;-56
2023/03/31 04:03:37;;;;;;;0.57;0.57;;;;;;;9.39;61.91;95449.28;5132734;27;20441;-55
2023/03/31 04:06:06;;;;;;;1.97;0.50;;;;;;;9.55;61.68;95442.22;5132642;27;20440;-56
2023/03/31 04:08:35;;;;;;;0.37;0.30;;;;;;;9.21;61.78;95377.56;5132688;27;20531;-55
2023/03/31 04:11:11;;;;;;;0.40;0.40;;;;;;;9.41;62.99;95433.19;5133006;27;20476;-56
2023/03/31 04:13:39;;;;;;;0.47;0.30;;;;;;;8.94;64.26;95426.06;5132398;27;20498;-55
2023/03/31 04:16:08;;;;;;;0.70;0.70;;;;;;;8.47;65.68;95406.75;5132439;28;20438;-56
2023/03/31 04:18:42;;;;;;;0.60;0.30;;;;;;;8.42;66.82;95414.63;5132097;27;20443;-55
2023/03/31 04:21:14;;;;;;;0.50;0.40;;;;;;;8.88;64.59;95421.78;5131858;28;20531;-56
2023/03/31 04:23:45;;;;;;;0.40;0.30;;;;;;;8.62;65.08;95417.41;5131940;28;20458;-56
2023/03/31 04:26:15;;;;;;;0.50;0.50;;;;;;;8.35;66.18;95392.13;5132204;28;20439;-55
2023/03/31 04:28:45;;;;;;;0.77;0.53;;;;;;;8.91;64.56;95415.19;5131465;28;20475;-55
2023/03/31 04:31:23;;;;;;;0.40;0.30;;;;;;;9.19;63.85;95406.88;5132331;27;20436;-55
2023/03/31 04:33:54;;;;;;;0.47;0.40;;;;;;;9.40;62.98;95400.63;5132181;28;20523;-55
2023/03/31 04:36:22;;;;;;;0.30;0.30;;;;;;;9.67;62.45;95397.78;5132072;28;20545;-55
2023/03/31 04:38:53;;;;;;;1.17;0.90;;;;;;;8.10;64.77;95314.28;5131819;28;20441;-56
2023/03/31 04:41:22;;;;;;;12.20;2.27;;;;;;;7.61;68.85;95421.75;5131864;27;20806;-56
2023/03/31 04:43:51;;;;;;;0.70;0.70;;;;;;;7.38;70.59;95431.78;5132233;28;20443;-56
2023/03/31 04:46:20;;;;;;;1.00;1.00;;;;;;;7.34;69.80;95355.00;5131215;28;20528;-56
2023/03/31 04:48:48;;;;;;;0.97;0.90;;;;;;;7.80;70.25;95429.34;5132028;27;20474;-56
2023/03/31 04:51:19;;;;;;;3.50;1.33;;;;;;;7.95;69.24;95421.56;5130883;28;20540;-55
2023/03/31 04:53:47;;;;;;;0.50;0.40;;;;;;;8.01;68.97;95431.94;5131204;28;20498;-55
2023/03/31 04:56:15;;;;;;;0.50;0.47;;;;;;;8.01;69.23;95431.13;5131374;27;20951;-55
2023/03/31 04:58:44;;;;;;;0.40;0.30;;;;;;;8.30;67.33;95413.97;5131102;28;20516;-55
2023/03/31 05:01:17;;;;;;;1.23;1.23;;;;;;;8.38;67.02;95400.31;5133197;27;20436;-55
2023/03/31 05:03:46;;;;;;;0.63;0.50;;;;;;;8.57;66.44;95404.16;5135419;27;20883;-55
2023/03/31 05:06:15;;;;;;;11.30;0.90;;;;;;;8.42;67.03;95414.63;5134800;27;20437;-55
2023/03/31 05:08:45;;;;;;;0.40;0.40;;;;;;;8.05;67.62;95360.94;5135380;27;20463;-56
2023/03/31 05:11:13;;;;;;;0.37;0.27;;;;;;;8.50;67.36;95424.69;5135649;27;20494;-55
2023/03/31 05:13:42;;;;;;;0.70;0.33;;;;;;;8.82;66.29;95422.81;5135473;27;20490;-55
2023/03/31 05:16:13;;;;;;;0.40;0.40;;;;;;;8.89;65.68;95420.75;5135920;27;20813;-56
2023/03/31 05:18:42;;;;;;;0.77;0.67;;;;;;;8.82;65.93;95424.66;5135844;27;20457;-56
2023/03/31 05:21:12;;;;;;;0.30;0.20;;;;;;;8.26;66.80;95370.63;5122948;27;20525;-56
2023/03/31 05:23:42;;;;;;;0.30;0.20;;;;;;;8.98;65.37;95420.28;5133574;27;20552;-56
2023/03/31 05:26:13;;;;;;;0.77;0.77;;;;;;;8.82;64.46;95343.53;5136039;27;20460;-56
2023/03/31 05:28:42;;;;;;;5.23;0.60;;;;;;;9.18;64.83;95404.50;5135037;27;20877;-56
2023/03/31 05:31:11;;;;;;;0.40;0.30;;;;;;;9.40;63.26;95400.63;5135716;27;20873;-55
2023/03/31 05:33:40;;;;;;;0.90;0.90;;;;;;;9.52;63.25;95401.19;5109810;27;20480;-56
2023/03/31 05:36:11;;;;;;;0.67;0.40;;;;;;;9.57;62.58;95405.69;5135389;27;20443;-56
2023/03/31 05:38:40;;;;;;;0.30;0.20;;;;;;;9.51;63.09;95396.19;5135648;27;20434;-56
2023/03/31 05:41:09;;;;;;;0.30;0.20;;;;;;;9.72;62.95;95405.75;5135046;27;20507;-56
2023/03/31 05:43:40;;;;;;;0.50;0.50;;;;;;;10.02;62.09;95407.63;5134957;27;20445;-56
2023/03/31 05:46:08;;;;;;;0.40;0.30;;;;;;;9.68;61.94;95346.47;5135327;27;20441;-56
2023/03/31 05:48:37;;;;;;;0.63;0.63;;;;;;;9.56;62.17;95322.09;5135315;27;20948;-56
2023/03/31 05:51:06;;;;;;;0.80;0.80;;;;;;;9.98;61.88;95399.44;5135265;27;20473;-57
2023/03/31 05:53:34;;;;;;;0.70;0.70;;;;;;;9.98;61.91;95388.84;5135269;27;20512;-56
2023/03/31 05:56:05;;;;;;;0.70;0.50;;;;;;;10.27;61.85;95388.38;5134831;27;20483;-56
2023/03/31 05:58:35;;;;;;;0.30;0.20;;;;;;;10.43;61.05;95380.16;5135234;27;20441;-56
2023/03/31 06:01:07;;;;;;;0.40;0.30;;;;;;;10.63;60.87;95363.41;5134643;27;20434;-56
2023/03/31 06:03:39;;;;;;;0.30;0.20;;;;;;;11.39;58.56;95378.03;5135114;27;20433;-55
2023/03/31 06:06:09;;;;;;;0.83;0.70;;;;;;;11.10;57.64;95288.78;5108406;27;20438;-55
2023/03/31 06:08:38;;;;;;;0.50;0.30;;;;;;;11.90;56.91;95372.47;5134903;27;20519;-66
2023/03/31 06:11:07;;;;;;;0.60;0.40;;;;;;;11.88;55.76;95318.84;5134211;27;20430;-55
2023/03/31 06:13:36;;;;;;;0.47;0.37;;;;;;;12.57;54.94;95355.75;5134204;27;20446;-55
2023/03/31 06:16:07;;;;;;;0.93;0.93;;;;;;;12.20;54.99;95366.16;5134970;27;20521;-56
2023/03/31 06:18:36;;;;;;;1.33;1.10;;;;;;;12.43;54.34;95354.81;5133686;27;20443;-56
2023/03/31 06:21:05;;;;;;;0.40;0.40;;;;;;;13.04;53.72;95355.78;5134530;27;20445;-56
2023/03/31 06:23:34;;;;;;;0.40;0.30;;;;;;;13.41;52.40;95333.81;5133889;27;20477;-56
2023/03/31 06:26:05;;;;;;;0.80;0.70;;;;;;;13.97;51.49;95347.94;5134462;27;20445;-56
2023/03/31 06:28:34;;;;;;;0.67;0.57;;;;;;;14.33;50.74;95340.22;5134151;27;21013;-55
2023/03/31 06:31:04;;;;;;;0.40;0.30;;;;;;;14.66;49.90;95338.34;5134675;27;20427;-55
2023/03/31 06:33:35;;;;;;;0.40;0.30;;;;;;;14.72;49.03;95309.69;5133031;27;20439;-55
2023/03/31 06:36:05;;;;;;;0.40;0.37;;;;;;;15.10;47.94;95324.44;5134730;27;20515;-55
2023/03/31 06:38:35;;;;;;;0.60;0.60;;;;;;;14.52;47.91;95242.28;5134130;27;20435;-54
2023/03/31 06:41:03;;;;;;;0.40;0.30;;;;;;;15.41;47.99;95330.72;5133767;27;20943;-55
2023/03/31 06:43:32;;;;;;;0.40;0.40;;;;;;;15.44;47.91;95308.78;5134531;27;20435;-55
2023/03/31 06:46:01;;;;;;;0.40;0.30;;;;;;;15.75;46.78;95314.28;5133624;27;20567;-55
2023/03/31 06:48:29;;;;;;;1.63;1.53;;;;;;;16.93;44.12;95309.25;5133990;27;20499;-56
2023/03/31 06:51:02;;;;;;;0.63;0.63;;;;;;;17.36;43.61;95330.81;5133623;27;20435;-56
2023/03/31 06:53:30;;;;;;;1.43;1.40;;;;;;;16.64;43.88;95325.03;5134081;27;20443;-56
2023/03/31 06:55:59;;;;;;;0.50;0.40;;;;;;;17.01;44.53;95324.56;5133517;27;20838;-55
2023/03/31 06:58:28;;;;;;;0.53;0.53;;;;;;;17.25;44.31;95318.84;5133925;27;20490;-55
2023/03/31 07:00:59;;;;;;;0.60;0.53;;;;;;;16.61;43.97;95291.63;5134040;27;20826;-55
2023/03/31 07:03:28;;;;;;;9.23;0.47;;;;;;;16.91;43.57;95300.75;5133710;27;20807;-55
2023/03/31 07:05:56;;;;;;;0.73;0.60;;;;;;;16.43;43.54;95314.00;5133019;27;20438;-56
2023/03/31 07:08:26;;;;;;;1.80;0.50;;;;;;;17.35;43.17;95308.63;5133305;27;20446;-56
2023/03/31 07:10:56;;;;;;;1.47;0.67;;;;;;;17.12;43.15;95301.78;5132724;27;20518;-56
2023/03/31 07:13:26;;;;;;;0.70;0.50;;;;;;;16.94;42.93;95310.84;5133414;27;20513;-56
2023/03/31 07:15:54;;;;;;;1.27;1.17;;;;;;;16.71;42.91;95312.00;5133589;27;20481;-57
2023/03/31 07:18:24;;;;;;;1.50;1.07;;;;;;;16.50;45.12;95307.13;5133002;27;20459;-57
2023/03/31 07:20:53;;;;;;;0.60;0.40;;;;;;;16.56;44.34;95299.78;5133439;27;20492;-58
2023/03/31 07:23:21;;;;;;;0.67;0.67;;;;;;;17.58;44.08;95290.56;5132603;27;20517;-59
2023/03/31 07:25:51;;;;;;;0.70;0.40;;;;;;;18.06;42.60;95293.13;5133199;27;20446;-59
2023/03/31 07:28:19;;;;;;;0.50;0.50;;;;;;;17.42;43.56;95266.06;5133316;27;20439;-60
2023/03/31 07:30:48;;;;;;;0.87;0.37;;;;;;;17.78;42.83;95282.69;5133097;27;20437;-61
2023/03/31 07:33:16;;;;;;;0.40;0.40;;;;;;;17.29;42.55;95272.34;5133401;27;20431;-62
2023/03/31 07:35:44;;;;;;;0.40;0.30;;;;;;;18.78;40.95;95272.47;5121782;27;20833;-63
2023/03/31 07:38:14;;;;;;;0.40;0.30;;;;;;;19.57;40.45;95274.47;5131042;27;20934;-63
2023/03/31 07:40:44;;;;;;;0.40;0.20;;;;;;;19.63;38.96;95217.47;5133189;27;20439;-66
2023/03/31 07:43:24;;;;;;;0.40;0.30;;;;;;;19.71;39.24;95260.78;5133255;27;20514;-66
2023/03/31 07:45:52;;;;;;;0.60;0.40;;;;;;;19.45;38.77;95258.25;5132706;27;20529;-64
2023/03/31 07:48:21;;;;;;;0.50;0.40;;;;;;;19.57;38.63;95250.25;5132989;27;20439;-64
2023/03/31 07:50:50;;;;;;;0.43;0.40;;;;;;;20.25;38.72;95249.72;5132770;27;20449;-64
2023/03/31 07:53:18;;;;;;;0.70;0.70;;;;;;;19.87;38.21;95241.00;5132194;27;20431;-64
2023/03/31 07:55:47;;;;;;;0.80;0.70;;;;;;;20.23;37.26;95243.88;5132310;27;20474;-64
2023/03/31 07:58:15;;;;;;;0.80;0.80;;;;;;;20.53;37.64;95239.16;5132885;27;20445;-64
2023/03/31 08:00:45;;;;;;;0.40;0.30;;;;;;;20.72;36.63;95235.94;5132740;27;20477;-64
2023/03/31 08:03:13;;;;;;;0.50;0.40;;;;;;;21.19;36.69;95212.03;5131953;27;20438;-64
2023/03/31 08:05:42;;;;;;;0.50;0.37;;;;;;;20.87;36.39;95186.78;5128237;27;20435;-64
2023/03/31 08:08:13;;;;;;;1.30;1.20;;;;;;;21.75;35.60;95218.34;5123639;27;20938;-63
2023/03/31 08:10:41;;;;;;;0.70;0.70;;;;;;;20.23;36.75;95211.59;5132413;27;20442;-64
2023/03/31 08:13:09;;;;;;;0.50;0.40;;;;;;;20.12;37.06;95201.53;5132269;27;20522;-64
2023/03/31 08:15:37;;;;;;;2.00;0.40;;;;;;;19.54;37.88;95186.41;5131936;27;21000;-64
2023/03/31 08:18:08;;;;;;;0.50;0.47;;;;;;;19.88;37.54;95202.25;5132641;27;20491;-63
2023/03/31 08:20:38;;;;;;;0.40;0.40;;;;;;;20.74;36.98;95193.28;5104477;27;20837;-63
2023/03/31 08:23:10;;;;;;;0.50;0.50;;;;;;;21.47;36.04;95191.34;5132565;28;20466;-60
2023/03/31 08:25:38;;;;;;;2.13;0.70;;;;;;;21.01;36.17;95189.91;5132397;28;20443;-62
2023/03/31 08:28:09;;;;;;;0.50;0.40;;;;;;;22.32;34.99;95191.00;5131224;28;21009;-63
2023/03/31 08:30:38;;;;;;;0.40;0.30;;;;;;;21.86;35.10;95187.06;5132033;27;20522;-62
2023/03/31 08:33:10;;;;;;;0.50;0.50;;;;;;;22.22;35.96;95186.91;5132640;27;20439;-61
2023/03/31 08:35:39;;;;;;;0.83;0.60;;;;;;;22.80;34.04;95181.84;5133499;27;20466;-61
2023/03/31 08:38:07;;;;;;;1.10;0.40;;;;;;;22.53;33.88;95141.03;5136150;27;20434;-60
2023/03/31 08:40:40;;;;;;;0.40;0.30;;;;;;;23.11;33.14;95070.97;5136523;27;20443;-60
2023/03/31 08:43:13;;;;;;;0.50;0.40;;;;;;;23.98;33.03;95145.03;5136193;27;20481;-60
2023/03/31 08:45:45;;;;;;;0.40;0.30;;;;;;;24.46;31.59;95140.91;5136569;27;20550;-61
2023/03/31 08:48:24;;;;;;;0.40;0.30;;;;;;;25.09;30.04;95133.03;5108504;27;20830;-60
2023/03/31 08:50:57;;;;;;;0.50;0.30;;;;;;;23.72;32.12;95142.22;5136162;27;20442;-60
2023/03/31 08:53:29;;;;;;;0.37;0.30;;;;;;;23.23;32.05;95141.94;5136715;27;20431;-60
2023/03/31 08:55:58;;;;;;;0.40;0.30;;;;;;;23.62;31.64;95096.78;5135114;27;20480;-61
2023/03/31 08:58:38;;;;;;;0.43;0.40;;;;;;;23.17;31.87;95127.09;5136237;27;20439;-60
2023/03/31 09:01:17;;;;;;;0.70;0.50;;;;;;;23.84;31.76;95123.13;5135012;27;20522;-60
2023/03/31 09:04:02;;;;;;;0.40;0.30;;;;;;;23.81;30.99;95113.00;5135726;27;20444;-60
2023/03/31 09:06:38;;;;;;;0.40;0.30;;;;;;;24.13;31.11;95113.63;5135703;27;20449;-59
2023/03/31 09:09:11;;;;;;;0.37;0.30;;;;;;;24.93;32.19;95113.44;5135944;27;20484;-59
2023/03/31 09:11:46;;;;;;;0.40;0.30;;;;;;;24.50;30.73;95113.88;5135525;27;20934;-59
2023/03/31 09:14:21;;;;;;;0.47;0.40;;;;;;;24.77;30.20;95101.91;5110029;27;20525;-59
2023/03/31 09:16:59;;;;;;;2.10;0.33;;;;;;;25.72;29.98;95080.78;5135581;27;20514;-59
2023/03/31 09:19:36;;;;;;;0.50;0.27;;;;;;;24.95;31.45;95097.56;5135601;27;20434;-59
2023/03/31 09:22:11;;;;;;;0.40;0.30;;;;;;;24.77;31.86;95098.44;5135570;27;20807;-58
2023/03/31 09:24:47;;;;;;;1.97;0.33;;;;;;;23.80;33.14;95106.03;5135174;27;20997;-58
2023/03/31 09:27:16;;;;;;;0.40;0.30;;;;;;;24.29;30.47;95089.91;5110822;27;20491;-58
2023/03/31 09:29:50;;;;;;;2.70;0.40;;;;;;;25.18;30.68;95084.72;5134991;27;20443;-59
2023/03/31 09:32:20;;;;;;;1.27;0.30;;;;;;;26.47;30.02;95073.00;5135472;27;20470;-60
2023/03/31 09:34:56;;;;;;;0.50;0.47;;;;;;;25.11;29.84;95076.50;5132229;27;20492;-60
2023/03/31 09:37:27;;;;;;;3.63;0.60;;;;;;;24.61;30.95;95077.69;5126879;27;20981;-60
2023/03/31 09:39:56;;;;;;;0.70;0.33;;;;;;;23.59;32.78;95012.84;5135415;27;20861;-60
2023/03/31 09:42:24;;;;;;;0.50;0.50;;;;;;;25.49;30.13;95061.91;5135760;27;20449;-60
2023/03/31 09:44:53;;;;;;;0.40;0.40;;;;;;;26.70;29.00;95058.41;5135000;27;20438;-60
2023/03/31 09:47:29;;;;;;;0.40;0.30;;;;;;;25.85;28.80;95061.16;5134359;27;20465;-60
2023/03/31 09:49:59;;;;;;;0.60;0.40;;;;;;;26.61;28.49;95041.66;5135244;27;20439;-60
2023/03/31 09:52:30;;;;;;;0.40;0.30;;;;;;;26.91;27.78;95037.63;5134714;27;20981;-60
2023/03/31 09:55:01;;;;;;;0.60;0.40;;;;;;;25.99;28.64;95037.97;5134791;27;20442;-62
2023/03/31 09:57:31;;;;;;;0.40;0.30;;;;;;;26.75;29.21;95012.63;5134131;27;20477;-58
2023/03/31 10:00:15;;;;;;;0.47;0.47;;;;;;;27.13;27.67;95014.00;5134489;27;20947;-57
2023/03/31 10:02:48;;;;;;;0.40;0.40;;;;;;;27.71;26.77;94987.41;5134759;27;20934;-60
2023/03/31 10:05:28;;;;;;;0.70;0.70;;;;;;;28.79;26.13;94998.00;5134589;27;20439;-63
2023/03/31 10:08:22;;;;;;;0.40;0.30;;;;;;;29.79;25.00;95005.44;5135175;27;20438;-62
2023/03/31 10:10:54;;;;;;;0.63;0.60;;;;;;;26.97;27.37;94984.41;5134574;27;20530;-62
2023/03/31 10:13:25;;;;;;;0.50;0.37;;;;;;;27.00;28.59;94971.97;5134171;27;20443;-62
2023/03/31 10:15:56;;;;;;;2.00;0.50;;;;;;;27.02;28.67;94980.53;5133976;27;20477;-63
2023/03/31 10:18:34;;;;;;;0.40;0.40;;;;;;;25.75;29.04;94979.59;5134133;27;20829;-64
2023/03/31 10:21:05;;;;;;;1.90;0.40;;;;;;;25.49;29.94;94995.97;5134225;27;20471;-62
2023/03/31 10:23:35;;;;;;;1.90;1.03;;;;;;;25.49;30.23;94987.84;5133752;27;20481;-62
2023/03/31 10:26:05;;;;;;;0.50;0.50;;;;;;;26.64;28.61;94981.09;5134380;27;20854;-61
2023/03/31 10:28:36;;;;;;;0.60;0.33;;;;;;;26.50;28.84;94984.50;5134072;27;20530;-61
2023/03/31 10:31:05;;;;;;;0.30;0.20;;;;;;;27.53;28.02;94964.03;5134327;27;20522;-62
2023/03/31 10:33:40;;;;;;;0.40;0.30;;;;;;;26.40;28.34;94969.69;5134245;27;20934;-61
2023/03/31 10:36:17;;;;;;;0.63;0.63;;;;;;;25.05;29.42;94963.28;5134004;27;20544;-62
2023/03/31 10:38:48;;;;;;;0.40;0.30;;;;;;;23.96;31.15;94957.81;5134049;27;20442;-63
2023/03/31 10:41:19;;;;;;;0.40;0.40;;;;;;;23.43;32.40;94952.66;5133672;27;20451;-64
2023/03/31 10:43:51;;;;;;;0.40;0.30;;;;;;;24.00;31.47;94949.75;5133837;27;20462;-63
2023/03/31 10:46:21;;;;;;;0.30;0.20;;;;;;;25.53;29.88;94935.16;5129491;27;20461;-62
2023/03/31 10:48:51;;;;;;;0.40;0.30;;;;;;;25.70;29.34;94874.81;5134412;27;20445;-62
2023/03/31 10:51:26;;;;;;;1.13;0.30;;;;;;;27.51;27.39;94885.47;5133869;27;20441;-61
2023/03/31 10:54:02;;;;;;;8.90;0.50;;;;;;;26.39;28.07;94840.38;5133570;27;20992;-60
2023/03/31 10:56:38;;;;;;;0.30;0.20;;;;;;;27.27;28.47;94918.06;5109009;27;20466;-60
2023/03/31 10:59:24;;;;;;;0.50;0.50;;;;;;;27.79;27.12;94871.09;5132557;27;20531;-60
2023/03/31 11:02:06;;;;;;;0.40;0.33;;;;;;;27.83;26.45;94893.66;5133997;27;20474;-60
2023/03/31 11:04:46;;;;;;;0.30;0.30;;;;;;;27.95;26.23;94889.78;5108668;27;20445;-59
2023/03/31 11:07:35;;;;;;;0.50;0.30;;;;;;;28.89;25.90;94872.44;5133589;27;20808;-60
2023/03/31 11:10:22;;;;;;;0.50;0.50;;;;;;;28.28;25.77;94856.69;5133508;27;20435;-60
2023/03/31 11:12:57;;;;;;;0.50;0.50;;;;;;;29.52;25.61;94865.88;5111548;27;20926;-60
2023/03/31 11:15:34;;;;;;;0.50;0.30;;;;;;;30.11;25.69;94863.88;5133452;27;20438;-60
2023/03/31 11:18:16;;;;;;;0.50;0.50;;;;;;;29.65;25.37;94819.00;5133091;27;21013;-60
2023/03/31 11:20:56;;;;;;;0.40;0.30;;;;;;;29.09;25.16;94825.59;5133099;27;20837;-60
2023/03/31 11:23:40;;;;;;;0.40;0.40;;;;;;;29.23;25.47;94837.22;5132539;27;20565;-60
2023/03/31 11:26:13;;;;;;;4.70;0.67;;;;;;;27.71;25.46;94832.19;5132920;27;20435;-60
2023/03/31 11:29:00;;;;;;;0.50;0.40;;;;;;;28.36;25.20;94833.66;5132671;27;20439;-60
2023/03/31 11:31:46;;;;;;;0.40;0.30;;;;;;;29.19;24.67;94831.00;5132585;27;20439;-60
2023/03/31 11:34:32;;;;;;;0.40;0.30;;;;;;;29.74;24.34;94822.81;5132884;27;20439;-60
2023/03/31 11:37:21;;;;;;;0.40;0.30;;;;;;;30.76;23.47;94810.81;5132859;27;20554;-60
2023/03/31 11:42:56;;;;;;;0.30;0.30;;;;;;;29.72;24.29;94775.22;5127302;27;20530;-60
2023/03/31 11:45:30;;;;;;;0.40;0.30;;;;;;;30.66;23.82;94798.06;5132827;27;20449;-60
2023/03/31 11:48:03;;;;;;;1.90;1.27;;;;;;;30.13;24.33;94795.16;5132185;27;20434;-60
2023/03/31 11:50:39;;;;;;;0.50;0.30;;;;;;;29.29;24.66;94785.72;5133061;27;20442;-61
2023/03/31 11:53:16;;;;;;;0.60;0.40;;;;;;;29.42;24.20;94794.97;5132683;27;20443;-60
2023/03/31 11:55:48;;;;;;;0.40;0.30;;;;;;;29.78;23.71;94785.31;5132344;27;20448;-60
2023/03/31 11:58:22;;;;;;;0.30;0.20;;;;;;;30.40;24.04;94781.59;5131630;27;20470;-60
2023/03/31 12:00:57;;;;;;;0.50;0.37;;;;;;;27.62;26.36;94787.47;5132527;27;20453;-60
2023/03/31 12:03:37;;;;;;;0.50;0.30;;;;;;;29.08;25.28;94791.28;5132502;27;20430;-61
2023/03/31 12:06:15;;;;;;;0.50;0.43;;;;;;;29.26;24.99;94760.00;5106338;27;21007;-60